createdAt,value
2022-10-05T00:03:25.529Z,13.96
2022-10-05T00:08:31.923Z,13.93
2022-10-05T00:13:33.919Z,13.87
2022-10-05T00:18:35.934Z,13.85
2022-10-05T00:23:37.770Z,13.85
2022-10-05T00:28:41.348Z,13.85
2022-10-05T00:33:43.239Z,13.86
2022-10-05T00:38:45.291Z,13.88
2022-10-05T00:44:16.096Z,13.88
2022-10-05T00:49:20.997Z,13.80
2022-10-05T00:54:40.634Z,13.71
2022-10-05T00:59:45.533Z,13.68
2022-10-05T01:05:04.438Z,13.68
2022-10-05T01:10:32.734Z,13.70
2022-10-05T01:15:49.770Z,13.60
2022-10-05T01:21:10.401Z,13.48
2022-10-05T01:26:38.001Z,13.50
2022-10-05T01:32:08.290Z,13.50
2022-10-05T01:37:27.377Z,13.50
2022-10-05T01:42:30.471Z,13.45
2022-10-05T01:47:45.951Z,13.48
2022-10-05T01:52:50.734Z,13.54
2022-10-05T01:58:20.283Z,13.61
2022-10-05T02:03:31.011Z,13.78
2022-10-05T02:09:06.057Z,14.07
2022-10-05T02:14:23.097Z,14.21
2022-10-05T02:19:38.056Z,14.32
2022-10-05T02:24:49.021Z,14.38
2022-10-05T02:29:54.230Z,14.34
2022-10-05T02:35:02.151Z,14.14
2022-10-05T02:40:25.657Z,13.96
2022-10-05T02:45:46.993Z,13.81
2022-10-05T02:50:55.893Z,13.55
2022-10-05T02:55:59.389Z,13.30
2022-10-05T03:01:27.707Z,13.25
2022-10-05T03:06:36.642Z,13.18
2022-10-05T03:11:47.037Z,13.18
2022-10-05T03:17:24.946Z,13.19
2022-10-05T03:22:50.232Z,13.20
2022-10-05T03:28:09.118Z,13.23
2022-10-05T03:33:29.514Z,13.25
2022-10-05T03:38:58.542Z,13.14
2022-10-05T03:44:37.761Z,12.94
2022-10-05T03:49:42.833Z,12.79
2022-10-05T03:54:49.404Z,12.60
2022-10-05T04:00:02.648Z,12.45
2022-10-05T04:05:21.893Z,12.40
2022-10-05T04:10:29.174Z,12.43
2022-10-05T04:15:37.836Z,12.36
2022-10-05T04:20:47.606Z,12.37
2022-10-05T04:25:54.293Z,12.35
2022-10-05T04:30:57.244Z,12.27
2022-10-05T04:36:20.897Z,12.20
2022-10-05T04:41:31.995Z,12.19
2022-10-05T04:46:36.798Z,12.11
2022-10-05T04:51:41.919Z,12.07
2022-10-05T04:56:52.861Z,12.04
2022-10-05T05:02:03.581Z,12.00
2022-10-05T05:07:15.294Z,11.92
2022-10-05T05:12:23.127Z,12.01
2022-10-05T05:17:43.376Z,11.91
2022-10-05T05:22:57.466Z,11.86
2022-10-05T05:28:06.078Z,11.71
2022-10-05T05:33:14.018Z,11.69
2022-10-05T05:38:40.509Z,11.68
2022-10-05T05:44:23.907Z,11.73
2022-10-05T05:49:57.385Z,11.88
2022-10-05T05:55:30.325Z,12.01
2022-10-05T06:00:42.340Z,12.10
2022-10-05T06:05:50.037Z,12.20
2022-10-05T06:11:21.982Z,12.28
2022-10-05T06:16:34.048Z,12.32
2022-10-05T06:21:44.537Z,12.41
2022-10-05T06:27:20.981Z,12.57
2022-10-05T06:32:29.649Z,12.77
2022-10-05T06:37:46.083Z,13.02
2022-10-05T06:43:06.167Z,13.30
2022-10-05T06:48:35.221Z,13.64
2022-10-05T06:54:29.387Z,13.98
2022-10-05T07:00:03.944Z,14.38
2022-10-05T07:06:00.312Z,14.69
2022-10-05T07:11:15.128Z,14.99
2022-10-05T07:16:41.551Z,15.33
2022-10-05T07:21:57.544Z,15.69
2022-10-05T07:27:07.074Z,16.09
2022-10-05T07:32:24.191Z,16.45
2022-10-05T07:37:57.830Z,16.93
2022-10-05T07:43:14.666Z,17.43
2022-10-05T07:48:47.435Z,17.96
2022-10-05T07:54:15.886Z,18.34
2022-10-05T07:59:59.613Z,18.64
2022-10-05T08:05:13.508Z,18.74
2022-10-05T08:10:55.344Z,18.93
2022-10-05T08:16:12.681Z,19.09
2022-10-05T08:21:19.644Z,19.27
2022-10-05T08:26:32.069Z,19.29
2022-10-05T08:31:37.390Z,19.23
2022-10-05T08:36:39.145Z,19.21
2022-10-05T08:42:19.494Z,19.33
2022-10-05T08:47:47.359Z,19.45
2022-10-05T08:53:15.019Z,19.62
2022-10-05T08:58:41.351Z,19.79
2022-10-05T09:04:03.885Z,19.75
2022-10-05T09:09:17.825Z,19.60
2022-10-05T09:14:32.656Z,19.54
2022-10-05T09:20:15.166Z,19.70
2022-10-05T09:26:10.393Z,19.85
2022-10-05T09:32:00.643Z,20.09
2022-10-05T09:37:46.262Z,20.31
2022-10-05T09:42:59.979Z,20.41
2022-10-05T09:48:37.505Z,20.50
2022-10-05T09:54:11.821Z,20.71
2022-10-05T09:59:55.046Z,20.83
2022-10-05T10:05:31.907Z,20.86
2022-10-05T10:11:08.311Z,20.91
2022-10-05T10:16:31.224Z,20.97
2022-10-05T10:22:04.512Z,21.16
2022-10-05T10:27:33.610Z,21.35
2022-10-05T10:33:03.279Z,21.43
2022-10-05T10:38:35.951Z,21.45
2022-10-05T10:44:08.500Z,21.13
2022-10-05T10:49:36.795Z,21.63
2022-10-05T10:55:09.818Z,21.83
2022-10-05T11:00:20.297Z,22.03
2022-10-05T11:05:28.150Z,22.22
2022-10-05T11:10:39.227Z,22.41
2022-10-05T11:16:00.831Z,22.52
2022-10-05T11:21:11.919Z,22.68
2022-10-05T11:26:32.587Z,22.82
2022-10-05T11:32:10.131Z,23.08
2022-10-05T11:37:40.208Z,23.33
2022-10-05T11:42:50.659Z,23.60
2022-10-05T11:48:01.248Z,23.99
2022-10-05T11:53:25.367Z,24.38
2022-10-05T11:58:33.775Z,24.46
2022-10-05T12:03:57.174Z,24.88
2022-10-05T12:09:40.246Z,25.03
2022-10-05T12:15:03.385Z,24.92
2022-10-05T12:20:42.141Z,24.71
2022-10-05T12:25:53.742Z,24.43
2022-10-05T12:30:58.648Z,24.29
2022-10-05T12:36:12.258Z,24.45
2022-10-05T12:41:48.152Z,24.80
2022-10-05T12:47:07.220Z,25.30
2022-10-05T12:52:40.129Z,25.19
2022-10-05T12:58:06.641Z,24.86
2022-10-05T13:03:27.786Z,24.60
2022-10-05T13:08:55.722Z,24.51
2022-10-05T13:14:03.354Z,24.50
2022-10-05T13:19:23.793Z,24.28
2022-10-05T13:24:44.029Z,24.05
2022-10-05T13:30:13.421Z,23.89
2022-10-05T13:35:34.595Z,23.82
2022-10-05T13:41:13.190Z,23.82
2022-10-05T13:47:09.251Z,23.96
2022-10-05T13:52:29.267Z,24.53
2022-10-05T13:57:53.072Z,25.98
2022-10-05T14:03:01.074Z,28.16
2022-10-05T14:08:02.911Z,29.48
2022-10-05T14:13:31.975Z,28.96
2022-10-05T14:18:37.867Z,28.03
2022-10-05T14:23:39.710Z,26.91
2022-10-05T14:28:43.736Z,26.04
2022-10-05T14:33:45.648Z,25.64
2022-10-05T14:39:02.186Z,25.55
2022-10-05T14:44:09.904Z,25.24
2022-10-05T14:49:25.788Z,25.01
2022-10-05T14:54:33.684Z,24.85
2022-10-05T14:59:50.794Z,24.52
2022-10-05T15:05:05.454Z,24.19
2022-10-05T15:10:19.252Z,24.06
2022-10-05T15:15:39.787Z,24.04
2022-10-05T15:20:56.304Z,24.06
2022-10-05T15:26:10.737Z,24.00
2022-10-05T15:31:43.001Z,23.87
2022-10-05T15:37:15.126Z,23.70
2022-10-05T15:42:22.659Z,23.56
2022-10-05T15:47:34.335Z,23.42
2022-10-05T15:52:40.788Z,23.25
2022-10-05T15:57:53.589Z,23.03
2022-10-05T16:02:58.330Z,22.87
2022-10-05T16:08:19.504Z,22.73
2022-10-05T16:13:38.053Z,22.55
2022-10-05T16:18:57.538Z,22.36
2022-10-05T16:24:17.434Z,22.25
2022-10-05T16:29:24.030Z,22.09
2022-10-05T16:34:47.108Z,21.78
2022-10-05T16:39:53.211Z,21.56
2022-10-05T16:44:58.073Z,21.53
2022-10-05T16:50:43.241Z,21.44
2022-10-05T16:55:52.637Z,21.37
2022-10-05T17:01:23.541Z,21.33
2022-10-05T17:06:44.436Z,21.16
2022-10-05T17:12:10.586Z,21.01
2022-10-05T17:17:28.208Z,20.85
2022-10-05T17:22:50.893Z,20.66
2022-10-05T17:28:21.975Z,20.45
2022-10-05T17:33:30.582Z,20.27
2022-10-05T17:38:35.365Z,20.15
2022-10-05T17:43:37.793Z,20.08
2022-10-05T17:48:52.519Z,20.01
2022-10-05T17:54:34.063Z,19.95
2022-10-05T17:59:55.795Z,19.95
2022-10-05T18:05:07.069Z,19.92
2022-10-05T18:10:11.967Z,19.87
2022-10-05T18:15:26.379Z,19.74
2022-10-05T18:20:30.421Z,19.61
2022-10-05T18:26:26.642Z,19.45
2022-10-05T18:31:45.409Z,19.15
2022-10-05T18:37:12.368Z,19.14
2022-10-05T18:42:30.333Z,19.29
2022-10-05T18:47:49.596Z,19.57
2022-10-05T18:53:07.690Z,19.82
2022-10-05T18:58:14.496Z,19.95
2022-10-05T19:03:28.243Z,20.01
2022-10-05T19:08:36.348Z,20.03
2022-10-05T19:14:00.910Z,20.06
2022-10-05T19:19:29.411Z,20.10
2022-10-05T19:24:55.867Z,20.13
2022-10-05T19:30:22.080Z,20.14
2022-10-05T19:35:58.341Z,20.13
2022-10-05T19:41:20.178Z,20.15
2022-10-05T19:47:10.258Z,20.20
2022-10-05T19:52:21.147Z,20.24
2022-10-05T19:57:23.134Z,20.25
2022-10-05T20:02:28.126Z,20.25
2022-10-05T20:07:30.031Z,20.23
2022-10-05T20:12:51.103Z,20.24
2022-10-05T20:18:11.795Z,20.17
2022-10-05T20:23:24.630Z,20.18
2022-10-05T20:28:31.343Z,20.18
2022-10-05T20:33:34.532Z,20.16
2022-10-05T20:38:40.575Z,20.16
2022-10-05T20:43:43.326Z,20.18
2022-10-05T20:48:45.893Z,20.18
2022-10-05T20:53:47.698Z,20.17
2022-10-05T20:58:50.483Z,20.21
2022-10-05T21:03:53.608Z,20.21
2022-10-05T21:08:55.771Z,20.23
2022-10-05T21:14:00.001Z,20.23
2022-10-05T21:19:09.609Z,20.21
2022-10-05T21:24:15.567Z,20.25
2022-10-05T21:29:17.480Z,20.27
2022-10-05T21:34:19.348Z,20.36
2022-10-05T21:39:21.221Z,20.49
2022-10-05T21:44:23.004Z,20.58
2022-10-05T21:49:25.877Z,20.67
2022-10-05T21:54:28.708Z,20.71
2022-10-05T21:59:32.993Z,20.75
2022-10-05T22:04:34.807Z,20.80
2022-10-05T22:09:36.627Z,20.78
2022-10-05T22:14:38.482Z,20.80
2022-10-05T22:19:40.738Z,20.76
2022-10-05T22:24:42.658Z,20.76
2022-10-05T22:29:44.632Z,20.77
2022-10-05T22:34:46.523Z,20.75
2022-10-05T22:39:49.070Z,20.75
2022-10-05T22:44:50.867Z,20.75
2022-10-05T22:49:52.697Z,20.77
2022-10-05T22:54:54.703Z,20.75
2022-10-05T22:59:56.513Z,20.75
2022-10-05T23:04:59.121Z,20.72
2022-10-05T23:10:00.960Z,20.72
2022-10-05T23:15:03.406Z,20.70
2022-10-05T23:20:07.475Z,20.70
2022-10-05T23:25:09.599Z,20.69
2022-10-05T23:30:12.954Z,20.68
2022-10-05T23:35:15.132Z,20.65
2022-10-05T23:40:16.988Z,20.65
2022-10-05T23:45:18.803Z,20.62
2022-10-05T23:50:21.241Z,20.60
2022-10-05T23:55:23.092Z,20.58
